KDXR/DXR METAR and TAF weather

Enter ICAO airport designator
Station Type Date Time Source
KDXR METAR 2018/10/21 05:53 UTC NOAA

KDXR 210553Z AUTO 35010KT 9SM -RA OVC042 08/06 A2962 RMK AO2 RAB0454 SLP030 P0002 60004 T00780056 10083 20061 58001


Station Type Date Time Source
KDXR Decoded METAR 2018/10/21 05:53 UTC NOAA

DANBURY MUNICIPAL AIRPORT, CT, United States (KDXR) 41-22N 073-29W 139M
Oct 21, 2018 - 01:53 AM EDT / 2018.10.21 0553 UTC
Wind: from the N (350 degrees) at 12 MPH (10 KT):0
Visibility: 9 mile(s):0
Sky conditions: overcast
Weather: light rain
Precipitation last hour: 0.02 inches
Temperature: 46.0 F (7.8 C)
Dew Point: 42.1 F (5.6 C)
Relative Humidity: 85%
Pressure (altimeter): 29.62 in. Hg (1003 hPa)
Pressure tendency: 0.00 inches (0.1 hPa) lower than three hours ago
ob: KDXR 210553Z AUTO 35010KT 9SM -RA OVC042 08/06 A2962 RMK AO2 RAB0454 SLP030 P0002 60004 T00780056 10083 20061 58001
cycle: 6

Station Type Date Time Source
KDXR TAF UTC NOAA

Error!


Example: see airport list